Time;durP1;ratioP1;P1;durP2;ratioP2;P2;SDS_P1;SDS_P2;PMS_P1;PMS_P2;Temp;Humidity;BMP_temperature;BMP_pressure;BME280_temperature;BME280_humidity;BME280_pressure;Samples;Min_cycle;Max_cycle;Signal;HPM_P1;HPM_P2
2023/04/30 00:00:08;;;;;;;12.87;10.00;;;12.90;99.90;;;;;;5037678;28;20868;-29
2023/04/30 00:02:35;;;;;;;12.17;9.83;;;12.80;99.90;;;;;;5038820;28;20293;-30
2023/04/30 00:05:05;;;;;;;13.80;9.90;;;12.80;99.90;;;;;;5045747;28;20246;-30
2023/04/30 00:07:32;;;;;;;11.80;9.97;;;12.80;99.90;;;;;;5045045;28;20212;-30
2023/04/30 00:10:04;;;;;;;12.00;10.20;;;12.70;99.90;;;;;;5045315;28;20266;-29
2023/04/30 00:12:31;;;;;;;11.77;10.07;;;12.70;99.90;;;;;;5033663;28;20280;-30
2023/04/30 00:15:00;;;;;;;12.07;9.83;;;12.60;99.90;;;;;;5040202;28;20266;-30
2023/04/30 00:17:32;;;;;;;12.97;10.20;;;12.60;99.90;;;;;;5035030;28;20256;-30
2023/04/30 00:20:04;;;;;;;12.60;10.50;;;12.60;99.90;;;;;;5044057;28;20618;-29
2023/04/30 00:22:32;;;;;;;11.27;10.00;;;12.50;99.90;;;;;;5041379;28;20728;-30
2023/04/30 00:25:01;;;;;;;12.00;9.60;;;12.50;99.90;;;;;;5035609;28;20298;-30
2023/04/30 00:27:30;;;;;;;12.77;10.40;;;12.40;99.90;;;;;;5034637;28;20256;-30
2023/04/30 00:29:57;;;;;;;11.17;8.97;;;12.40;99.90;;;;;;5025500;28;20667;-30
2023/04/30 00:32:25;;;;;;;11.43;9.60;;;12.40;99.90;;;;;;5026572;28;20292;-30
2023/04/30 00:34:52;;;;;;;11.33;9.63;;;12.30;99.90;;;;;;5025492;28;20239;-29
2023/04/30 00:37:21;;;;;;;11.30;9.13;;;12.30;99.90;;;;;;5025604;28;20197;-30
2023/04/30 00:39:51;;;;;;;11.53;9.50;;;12.20;99.90;;;;;;5024971;28;20211;-29
2023/04/30 00:42:21;;;;;;;11.40;8.70;;;12.10;99.90;;;;;;5033064;28;20311;-30
2023/04/30 00:44:50;;;;;;;11.03;8.97;;;12.10;99.90;;;;;;5032129;28;20302;-30
2023/04/30 00:47:20;;;;;;;13.63;9.83;;;12.10;99.90;;;;;;5029751;28;20196;-30
2023/04/30 00:49:47;;;;;;;11.63;8.57;;;12.00;99.90;;;;;;5043813;28;20250;-30
2023/04/30 00:52:14;;;;;;;11.03;9.50;;;12.00;99.90;;;;;;5043819;28;20210;-29
2023/04/30 00:54:42;;;;;;;13.20;10.87;;;11.90;99.90;;;;;;5041848;28;20219;-29
2023/04/30 00:57:14;;;;;;;12.03;10.10;;;11.90;99.90;;;;;;5044700;28;20351;-29
2023/04/30 00:59:47;;;;;;;11.67;9.53;;;11.90;99.90;;;;;;5039150;28;20681;-29
2023/04/30 01:02:16;;;;;;;11.00;9.17;;;11.90;99.90;;;;;;5031259;28;20633;-29
2023/04/30 01:04:45;;;;;;;11.73;8.87;;;11.80;99.90;;;;;;5032902;28;20225;-29
2023/04/30 01:07:13;;;;;;;10.97;9.10;;;11.80;99.90;;;;;;5033383;28;20606;-29
2023/04/30 01:09:40;;;;;;;10.63;8.80;;;11.70;99.90;;;;;;5025127;28;20197;-29
2023/04/30 01:12:44;;;;;;;10.10;9.03;;;11.70;99.90;;;;;;5044859;28;20516;-29
2023/04/30 01:15:20;;;;;;;10.60;8.20;;;11.60;99.90;;;;;;5043684;28;20273;-29
2023/04/30 01:18:01;;;;;;;11.97;8.30;;;11.60;99.90;;;;;;5037939;28;20196;-29
2023/04/30 01:20:34;;;;;;;10.77;8.77;;;11.50;99.90;;;;;;5039505;28;20761;-29
2023/04/30 01:23:10;;;;;;;11.07;9.00;;;11.50;99.90;;;;;;5036097;28;20223;-29
2023/04/30 01:25:49;;;;;;;12.27;8.67;;;11.50;99.90;;;;;;5042305;28;20232;-29
2023/04/30 01:28:20;;;;;;;9.63;7.13;;;11.40;99.90;;;;;;5040027;28;20199;-29
2023/04/30 01:30:49;;;;;;;10.83;8.17;;;11.40;99.90;;;;;;5043692;28;20224;-29
2023/04/30 01:33:17;;;;;;;10.30;8.00;;;11.40;99.90;;;;;;5034093;28;20594;-30
2023/04/30 01:35:56;;;;;;;10.60;8.20;;;11.40;99.90;;;;;;5031029;28;20232;-29
2023/04/30 01:38:50;;;;;;;10.13;8.00;;;11.40;99.90;;;;;;5022432;28;20742;-29
2023/04/30 01:41:49;;;;;;;11.43;7.90;;;11.40;99.90;;;;;;5023683;28;20209;-29
2023/04/30 01:44:17;;;;;;;10.60;8.10;;;11.40;99.90;;;;;;5022762;28;20312;-29
2023/04/30 01:47:02;;;;;;;12.53;8.07;;;11.40;99.90;;;;;;5038300;28;20232;-29
2023/04/30 01:50:04;;;;;;;10.03;8.27;;;11.40;99.90;;;;;;5032125;28;20670;-29
2023/04/30 01:52:51;;;;;;;9.43;7.77;;;11.40;99.90;;;;;;5040509;28;20216;-29
2023/04/30 01:55:41;;;;;;;8.93;7.33;;;11.40;99.90;;;;;;5024119;28;20201;-29
2023/04/30 01:58:19;;;;;;;10.00;8.10;;;11.40;99.90;;;;;;5021158;28;20226;-29
2023/04/30 02:00:51;;;;;;;9.20;8.13;;;11.40;99.90;;;;;;5041753;28;20215;-29
2023/04/30 02:03:20;;;;;;;10.47;7.87;;;11.40;99.90;;;;;;5040760;28;20848;-29
2023/04/30 02:05:50;;;;;;;9.30;7.33;;;11.50;99.90;;;;;;5043371;28;20705;-29
2023/04/30 02:08:19;;;;;;;7.73;6.90;;;11.50;99.90;;;;;;5024475;28;20528;-29
2023/04/30 02:10:49;;;;;;;10.07;7.77;;;11.50;99.90;;;;;;5023662;28;20288;-29
2023/04/30 02:13:18;;;;;;;10.80;8.10;;;11.50;99.90;;;;;;5020857;28;20248;-29
2023/04/30 02:15:46;;;;;;;10.23;7.70;;;11.40;99.90;;;;;;5043106;28;20269;-29
2023/04/30 02:18:15;;;;;;;11.20;8.20;;;11.40;99.90;;;;;;5040200;28;20689;-29
2023/04/30 02:20:45;;;;;;;9.03;8.00;;;11.40;99.90;;;;;;5041844;28;20678;-29
2023/04/30 02:23:12;;;;;;;12.37;8.20;;;11.30;99.90;;;;;;5040822;28;20226;-29
2023/04/30 02:25:43;;;;;;;10.13;7.47;;;11.20;99.90;;;;;;5041323;28;20642;-29
2023/04/30 02:28:13;;;;;;;9.40;7.60;;;11.20;99.90;;;;;;5022691;28;20205;-29
2023/04/30 02:30:43;;;;;;;9.80;7.43;;;11.10;99.90;;;;;;5023876;28;20228;-29
2023/04/30 02:33:12;;;;;;;9.07;7.27;;;11.10;99.90;;;;;;5038249;28;20297;-29
2023/04/30 02:35:40;;;;;;;8.27;6.73;;;11.20;99.90;;;;;;5056145;28;20560;-29
2023/04/30 02:38:07;;;;;;;9.47;7.00;;;11.20;99.90;;;;;;5041418;28;20741;-29
2023/04/30 02:40:39;;;;;;;8.57;7.40;;;11.20;99.90;;;;;;5030790;28;20232;-29
2023/04/30 02:43:08;;;;;;;9.73;7.70;;;11.20;99.90;;;;;;5040430;28;20295;-29
2023/04/30 02:45:35;;;;;;;9.57;7.13;;;11.20;99.90;;;;;;5043611;28;20338;-29
2023/04/30 02:48:05;;;;;;;11.60;7.33;;;11.20;99.90;;;;;;5029637;28;20208;-29
2023/04/30 02:50:35;;;;;;;10.70;7.53;;;11.20;99.90;;;;;;5038115;28;20220;-29
2023/04/30 02:53:07;;;;;;;7.73;6.40;;;11.20;99.90;;;;;;5041448;28;20753;-29
2023/04/30 02:55:36;;;;;;;9.27;6.87;;;11.20;99.90;;;;;;5043173;28;20212;-30
2023/04/30 02:58:05;;;;;;;9.43;6.73;;;11.20;99.90;;;;;;5039655;28;20760;-29
2023/04/30 03:00:33;;;;;;;10.33;7.50;;;11.20;99.90;;;;;;5028089;28;20320;-29
2023/04/30 03:03:00;;;;;;;9.27;7.13;;;11.20;99.90;;;;;;5025182;28;20299;-29
2023/04/30 03:05:27;;;;;;;8.23;6.43;;;11.10;99.90;;;;;;5039696;28;20550;-29
2023/04/30 03:07:59;;;;;;;9.77;6.60;;;11.20;99.90;;;;;;5046619;28;20277;-30
2023/04/30 03:10:28;;;;;;;9.70;7.63;;;11.10;99.90;;;;;;5044629;28;20295;-29
2023/04/30 03:12:56;;;;;;;9.33;7.23;;;11.10;99.90;;;;;;5045880;28;20328;-29
2023/04/30 03:15:25;;;;;;;8.73;6.87;;;11.10;99.90;;;;;;5044637;28;20248;-29
2023/04/30 03:17:55;;;;;;;10.93;7.53;;;11.00;99.90;;;;;;5045918;28;20211;-29
2023/04/30 03:20:24;;;;;;;10.73;7.70;;;11.00;99.90;;;;;;5045087;28;20700;-29
2023/04/30 03:22:56;;;;;;;9.53;7.40;;;11.00;99.90;;;;;;5044965;28;20243;-29
2023/04/30 03:25:25;;;;;;;10.83;7.33;;;10.90;99.90;;;;;;5044876;28;20223;-29
2023/04/30 03:27:52;;;;;;;8.87;7.40;;;10.90;99.90;;;;;;5044243;28;20274;-29
2023/04/30 03:30:20;;;;;;;10.03;7.67;;;10.90;99.90;;;;;;5040714;28;20201;-29
2023/04/30 03:32:51;;;;;;;9.27;7.80;;;10.80;99.90;;;;;;5041470;28;20604;-29
2023/04/30 03:35:21;;;;;;;11.07;7.73;;;10.80;99.90;;;;;;5051157;28;20230;-29
2023/04/30 03:37:51;;;;;;;8.80;7.43;;;10.80;99.90;;;;;;5046061;28;20623;-29
2023/04/30 03:40:18;;;;;;;9.60;7.80;;;10.70;99.90;;;;;;5045142;28;20208;-29
2023/04/30 03:42:47;;;;;;;10.77;8.13;;;10.60;99.90;;;;;;5036827;28;20209;-29
2023/04/30 03:45:18;;;;;;;11.97;8.80;;;10.50;99.90;;;;;;5026569;28;20595;-29
2023/04/30 03:47:45;;;;;;;10.27;8.20;;;10.50;99.90;;;;;;5025767;28;20204;-29
2023/04/30 03:50:17;;;;;;;11.27;8.23;;;10.40;99.90;;;;;;5043419;28;20208;-29
2023/04/30 03:52:46;;;;;;;9.77;8.30;;;10.40;99.90;;;;;;5060219;28;20648;-29
2023/04/30 03:55:13;;;;;;;14.00;8.57;;;10.40;99.90;;;;;;5040032;28;20290;-29
2023/04/30 03:57:41;;;;;;;12.97;9.10;;;10.30;99.90;;;;;;5033503;28;20240;-29
2023/04/30 04:00:09;;;;;;;9.87;8.07;;;10.30;99.90;;;;;;5045153;28;20379;-30
2023/04/30 04:02:41;;;;;;;10.70;8.23;;;10.30;99.90;;;;;;5046017;28;20234;-30
2023/04/30 04:05:11;;;;;;;10.27;8.40;;;10.30;99.90;;;;;;5039345;28;20683;-30
2023/04/30 04:07:38;;;;;;;9.90;8.33;;;10.20;99.90;;;;;;5025240;28;20213;-30
2023/04/30 04:10:06;;;;;;;10.87;8.53;;;10.20;99.90;;;;;;5024854;28;20650;-30
2023/04/30 04:12:35;;;;;;;13.07;8.37;;;10.10;99.90;;;;;;5025876;28;20291;-30
2023/04/30 04:15:03;;;;;;;11.03;8.87;;;10.10;99.90;;;;;;5024817;28;20330;-30
2023/04/30 04:17:35;;;;;;;14.10;9.07;;;10.10;99.90;;;;;;5024833;28;20236;-30
2023/04/30 04:20:05;;;;;;;14.77;9.23;;;10.00;99.90;;;;;;5031076;28;20760;-30
2023/04/30 04:22:36;;;;;;;12.60;9.03;;;10.00;99.90;;;;;;5030745;28;20668;-28
2023/04/30 04:25:06;;;;;;;12.70;9.70;;;10.00;99.90;;;;;;5043246;28;20208;-29
2023/04/30 04:27:35;;;;;;;12.13;9.40;;;10.00;99.90;;;;;;5040740;28;20764;-29
2023/04/30 04:30:03;;;;;;;12.87;10.07;;;10.00;99.90;;;;;;5038049;28;20209;-29
2023/04/30 04:32:31;;;;;;;12.60;9.17;;;10.00;99.90;;;;;;5040517;28;20200;-29
2023/04/30 04:34:59;;;;;;;12.10;9.37;;;9.90;99.90;;;;;;5030815;28;20590;-29
2023/04/30 04:37:26;;;;;;;12.03;9.50;;;9.90;99.90;;;;;;5045142;28;20216;-29
2023/04/30 04:39:53;;;;;;;12.57;9.30;;;9.90;99.90;;;;;;5037033;28;20215;-29
2023/04/30 04:42:25;;;;;;;13.07;9.87;;;9.90;99.90;;;;;;5025761;28;20213;-29
2023/04/30 04:44:54;;;;;;;14.63;9.77;;;9.90;99.90;;;;;;5032037;28;20216;-29
2023/04/30 04:47:24;;;;;;;12.17;9.10;;;9.90;99.90;;;;;;5045506;28;20631;-29
2023/04/30 04:49:56;;;;;;;13.10;9.60;;;10.00;99.90;;;;;;5043952;28;20223;-29
2023/04/30 04:52:23;;;;;;;12.30;9.53;;;10.00;99.90;;;;;;5044432;28;20343;-29
2023/04/30 04:54:52;;;;;;;13.57;9.47;;;10.00;99.90;;;;;;5042302;28;20741;-29
2023/04/30 04:57:27;;;;;;;15.43;10.43;;;10.00;99.90;;;;;;5027877;28;20283;-29
2023/04/30 04:59:54;;;;;;;11.20;9.50;;;10.00;99.90;;;;;;5041419;28;20205;-29
2023/04/30 05:02:22;;;;;;;12.77;9.67;;;10.10;99.90;;;;;;5039103;28;20235;-29
2023/04/30 05:04:50;;;;;;;13.40;9.07;;;10.10;99.90;;;;;;5031643;28;20550;-29
2023/04/30 05:07:19;;;;;;;12.97;9.77;;;10.10;99.90;;;;;;5030491;28;20224;-29
2023/04/30 05:09:46;;;;;;;12.40;10.23;;;10.10;99.90;;;;;;5028329;28;20335;-29
2023/04/30 05:12:14;;;;;;;12.80;9.87;;;10.10;99.90;;;;;;5052025;28;20697;-29
2023/04/30 05:14:43;;;;;;;15.53;10.93;;;10.10;99.90;;;;;;5041168;28;20196;-36
2023/04/30 05:17:15;;;;;;;12.90;10.50;;;10.20;99.90;;;;;;5029743;28;20236;-37
2023/04/30 05:19:46;;;;;;;12.93;9.73;;;10.20;99.90;;;;;;5033633;28;20480;-37
2023/04/30 05:22:15;;;;;;;11.07;9.83;;;10.20;99.90;;;;;;5028055;28;20329;-36
2023/04/30 05:24:45;;;;;;;11.10;9.80;;;10.30;99.90;;;;;;5039397;28;20227;-36
2023/04/30 05:27:15;;;;;;;12.57;10.30;;;10.30;99.90;;;;;;5038095;28;20226;-37
2023/04/30 05:29:44;;;;;;;15.53;10.37;;;10.30;99.90;;;;;;5053238;28;21045;-36
2023/04/30 05:32:14;;;;;;;14.43;10.50;;;10.30;99.90;;;;;;5041542;28;20204;-36
2023/04/30 05:34:44;;;;;;;13.33;11.17;;;10.30;99.90;;;;;;5040307;28;20583;-36
2023/04/30 05:37:16;;;;;;;13.87;10.97;;;10.40;99.90;;;;;;5040563;28;20764;-37
2023/04/30 05:39:45;;;;;;;12.37;10.40;;;10.40;99.90;;;;;;5043418;28;20232;-36
2023/04/30 05:42:13;;;;;;;14.13;10.97;;;10.40;99.90;;;;;;5040829;28;20713;-37
2023/04/30 05:44:42;;;;;;;14.57;10.87;;;10.50;99.90;;;;;;5021263;28;20208;-37
2023/04/30 05:47:16;;;;;;;14.40;12.07;;;10.50;99.90;;;;;;5025424;28;20244;-36
2023/04/30 05:49:48;;;;;;;14.10;11.57;;;10.50;99.90;;;;;;5026614;28;20662;-37
2023/04/30 05:52:17;;;;;;;15.30;11.80;;;10.50;99.90;;;;;;5029329;28;20293;-36
2023/04/30 05:54:47;;;;;;;16.90;12.17;;;10.60;99.90;;;;;;5034198;28;20811;-37
2023/04/30 05:57:16;;;;;;;13.83;11.87;;;10.60;99.90;;;;;;5025096;28;20244;-36
2023/04/30 05:59:43;;;;;;;17.80;13.00;;;10.60;99.90;;;;;;5029338;28;20763;-37
2023/04/30 06:02:13;;;;;;;15.70;12.40;;;10.70;99.90;;;;;;5041879;28;21073;-37
2023/04/30 06:04:42;;;;;;;15.47;12.17;;;10.70;99.90;;;;;;5039546;28;20629;-36
2023/04/30 06:07:17;;;;;;;16.87;12.83;;;10.70;99.90;;;;;;5042521;28;20240;-36
2023/04/30 06:09:46;;;;;;;16.53;12.50;;;10.80;99.90;;;;;;5041255;28;20196;-37
2023/04/30 06:12:13;;;;;;;17.90;13.13;;;10.90;99.90;;;;;;5037502;28;20236;-36
2023/04/30 06:14:44;;;;;;;16.73;12.43;;;10.90;99.90;;;;;;5026616;28;20216;-37
2023/04/30 06:17:16;;;;;;;16.13;13.07;;;10.90;99.90;;;;;;5034614;28;20223;-37
2023/04/30 06:19:45;;;;;;;17.93;13.30;;;11.00;99.90;;;;;;5040870;28;20208;-36
2023/04/30 06:22:15;;;;;;;18.17;13.90;;;11.00;99.90;;;;;;5042831;28;20212;-37
2023/04/30 06:24:44;;;;;;;16.93;13.33;;;11.00;99.90;;;;;;5030301;28;20254;-37
2023/04/30 06:27:14;;;;;;;17.33;14.30;;;11.10;99.90;;;;;;5029774;28;20270;-36
2023/04/30 06:29:43;;;;;;;17.10;14.03;;;11.20;99.90;;;;;;5033362;28;20203;-36
2023/04/30 06:32:13;;;;;;;15.50;13.37;;;11.20;99.90;;;;;;5029343;28;20255;-36
2023/04/30 06:34:42;;;;;;;17.00;14.23;;;11.20;99.90;;;;;;5026937;28;20610;-37
2023/04/30 06:37:12;;;;;;;15.67;13.60;;;11.30;99.90;;;;;;5024141;28;20762;-37
2023/04/30 06:39:41;;;;;;;15.97;14.27;;;11.40;99.90;;;;;;5028131;28;20212;-37
2023/04/30 06:42:11;;;;;;;18.33;15.00;;;11.40;99.90;;;;;;5036588;28;20212;-36
2023/04/30 06:44:38;;;;;;;19.50;15.37;;;11.40;99.90;;;;;;5035602;28;20207;-37
2023/04/30 06:47:09;;;;;;;18.33;15.50;;;11.50;99.90;;;;;;5035695;28;20228;-36
2023/04/30 06:49:36;;;;;;;20.50;16.07;;;11.60;99.90;;;;;;5031556;28;20197;-37
2023/04/30 06:52:04;;;;;;;22.63;18.20;;;11.60;99.90;;;;;;5034200;28;20256;-37
2023/04/30 06:54:31;;;;;;;20.97;16.53;;;11.60;99.90;;;;;;5034787;28;20222;-36
2023/04/30 06:57:03;;;;;;;21.37;16.83;;;11.60;99.90;;;;;;5045682;28;20236;-37
2023/04/30 06:59:35;;;;;;;21.33;16.70;;;11.70;99.90;;;;;;5030605;28;20441;-36
2023/04/30 07:02:02;;;;;;;19.20;15.63;;;11.80;99.90;;;;;;5026811;28;20583;-37
2023/04/30 07:04:30;;;;;;;19.90;15.43;;;11.80;99.90;;;;;;5033063;28;20216;-36
2023/04/30 07:06:57;;;;;;;21.77;17.90;;;11.90;99.90;;;;;;5037545;28;20630;-37
2023/04/30 07:09:27;;;;;;;23.80;17.60;;;11.90;99.90;;;;;;5036336;28;20617;-37
2023/04/30 07:12:02;;;;;;;21.43;18.07;;;12.00;99.90;;;;;;5025082;28;20205;-36
2023/04/30 07:14:31;;;;;;;21.20;17.27;;;12.00;99.90;;;;;;5025934;28;20278;-37
2023/04/30 07:17:01;;;;;;;20.33;16.73;;;12.10;99.90;;;;;;5032696;28;20693;-36
2023/04/30 07:19:31;;;;;;;19.87;17.20;;;12.20;99.90;;;;;;5030223;28;20208;-37
2023/04/30 07:22:01;;;;;;;18.77;15.63;;;12.20;99.90;;;;;;5034152;28;20224;-37
2023/04/30 07:24:30;;;;;;;19.80;15.23;;;12.30;99.90;;;;;;5034357;28;20212;-37
2023/04/30 07:27:02;;;;;;;21.60;16.47;;;12.40;99.90;;;;;;5024876;28;20829;-37
2023/04/30 07:29:30;;;;;;;19.37;16.97;;;12.50;99.90;;;;;;5029979;28;20204;-37
2023/04/30 07:31:59;;;;;;;20.67;16.30;;;12.50;99.90;;;;;;5042387;28;20278;-36
2023/04/30 07:34:27;;;;;;;21.83;17.40;;;12.60;99.90;;;;;;5039352;28;20215;-36
2023/04/30 07:36:56;;;;;;;20.43;16.93;;;12.70;99.90;;;;;;5035153;28;20214;-37
2023/04/30 07:39:23;;;;;;;20.50;18.03;;;12.70;99.90;;;;;;5044714;28;20202;-37
2023/04/30 07:41:53;;;;;;;20.47;17.23;;;12.80;99.90;;;;;;5033694;28;20212;-37
2023/04/30 07:44:22;;;;;;;22.37;18.03;;;12.80;99.90;;;;;;5031208;28;20208;-37
2023/04/30 07:46:51;;;;;;;22.77;19.03;;;12.90;99.90;;;;;;5040110;28;20225;-37
2023/04/30 07:49:19;;;;;;;22.83;17.53;;;13.00;99.90;;;;;;5029568;28;20299;-37
2023/04/30 07:51:48;;;;;;;21.63;17.27;;;13.00;99.90;;;;;;5035303;28;20288;-37
2023/04/30 07:54:17;;;;;;;19.13;16.50;;;13.10;99.90;;;;;;5031751;28;20577;-37
2023/04/30 07:56:44;;;;;;;21.40;17.63;;;13.20;99.90;;;;;;5026935;28;20718;-36
2023/04/30 07:59:20;;;;;;;21.17;17.07;;;13.20;99.90;;;;;;5031053;28;20616;-37
2023/04/30 08:01:50;;;;;;;19.60;15.83;;;13.30;99.90;;;;;;5032999;28;20206;-37
2023/04/30 08:04:17;;;;;;;21.60;17.70;;;13.40;99.90;;;;;;5034667;28;20295;-37
2023/04/30 08:06:47;;;;;;;19.27;16.67;;;13.40;99.90;;;;;;5040087;28;20585;-37
2023/04/30 08:09:17;;;;;;;21.37;16.83;;;13.50;99.90;;;;;;5041155;28;20266;-37
2023/04/30 08:11:47;;;;;;;22.07;17.40;;;13.50;99.90;;;;;;5043452;28;20251;-37
2023/04/30 08:14:14;;;;;;;18.13;16.00;;;13.60;99.90;;;;;;5037624;28;20223;-37
2023/04/30 08:16:46;;;;;;;18.40;16.20;;;13.70;99.90;;;;;;5027271;28;20227;-37
2023/04/30 08:19:13;;;;;;;19.67;16.27;;;13.70;99.90;;;;;;5050455;28;20204;-37
2023/04/30 08:21:40;;;;;;;20.57;15.73;;;13.80;99.90;;;;;;5031556;28;20243;-37
2023/04/30 08:24:12;;;;;;;18.33;16.30;;;13.80;99.90;;;;;;5037366;28;20749;-37
2023/04/30 08:26:42;;;;;;;23.33;18.30;;;13.90;99.90;;;;;;5036742;28;20212;-37
2023/04/30 08:29:09;;;;;;;20.45;17.10;;;14.00;99.90;;;;;;5035701;28;20204;-37
2023/04/30 08:31:36;;;;;;;19.57;16.47;;;14.00;99.90;;;;;;5033939;28;20664;-37
2023/04/30 08:34:06;;;;;;;19.93;16.00;;;14.10;99.90;;;;;;5037247;28;20590;-37
2023/04/30 08:36:35;;;;;;;18.23;15.60;;;14.10;99.90;;;;;;5016951;28;20676;-37
2023/04/30 08:39:03;;;;;;;18.97;15.57;;;14.20;99.90;;;;;;5034119;28;20749;-37
2023/04/30 08:41:33;;;;;;;17.63;14.37;;;14.30;99.90;;;;;;5037122;28;20650;-37
2023/04/30 08:44:09;;;;;;;18.30;15.37;;;14.30;99.90;;;;;;5041618;28;20577;-37
2023/04/30 08:46:38;;;;;;;19.90;16.00;;;14.30;99.90;;;;;;5042131;28;20224;-37
2023/04/30 08:49:10;;;;;;;17.43;15.00;;;14.40;99.90;;;;;;5033866;28;20213;-37
2023/04/30 08:51:42;;;;;;;16.70;14.40;;;14.40;99.90;;;;;;5032565;28;20291;-37
2023/04/30 08:54:12;;;;;;;16.80;14.17;;;14.50;99.90;;;;;;5041004;28;20285;-29
2023/04/30 08:56:45;;;;;;;22.07;16.27;;;14.60;99.90;;;;;;5036792;28;20232;-29
2023/04/30 08:59:16;;;;;;;18.70;16.00;;;14.60;99.90;;;;;;5048402;28;20602;-29
2023/04/30 09:01:43;;;;;;;17.17;14.93;;;14.70;99.90;;;;;;5039459;28;20243;-29
2023/04/30 09:04:15;;;;;;;16.13;14.10;;;14.70;99.90;;;;;;5028356;28;20737;-29
2023/04/30 09:06:43;;;;;;;15.50;13.90;;;14.80;99.90;;;;;;5029293;28;20541;-29
2023/04/30 09:09:14;;;;;;;16.50;14.73;;;14.80;99.90;;;;;;5039296;28;20298;-29
2023/04/30 09:11:45;;;;;;;16.42;12.88;;;14.90;99.90;;;;;;5029502;28;20207;-29
2023/04/30 09:14:26;;;;;;;14.93;12.50;;;14.90;99.90;;;;;;5035381;28;20315;-29
2023/04/30 09:16:56;;;;;;;16.00;13.63;;;15.00;99.90;;;;;;5037459;28;20688;-29
2023/04/30 09:19:28;;;;;;;13.75;12.00;;;15.00;99.90;;;;;;5030530;28;20201;-29
2023/04/30 09:21:58;;;;;;;14.10;11.90;;;15.10;99.90;;;;;;5034470;28;20208;-29
2023/04/30 09:24:25;;;;;;;12.73;11.33;;;15.10;99.90;;;;;;5055719;28;20204;-29
2023/04/30 09:26:57;;;;;;;13.13;10.37;;;15.20;99.90;;;;;;5024412;28;20279;-29
2023/04/30 09:29:35;;;;;;;12.27;10.47;;;15.30;99.90;;;;;;5022792;28;20193;-29
2023/04/30 09:32:09;;;;;;;15.10;11.77;;;15.30;99.90;;;;;;5029049;28;20207;-29
2023/04/30 09:34:39;;;;;;;13.53;10.97;;;15.40;99.90;;;;;;5024794;28;20227;-29
2023/04/30 09:37:08;;;;;;;13.37;10.70;;;15.40;99.90;;;;;;5023632;28;20243;-29
2023/04/30 09:39:54;;;;;;;13.30;10.67;;;15.50;99.90;;;;;;5025110;28;20324;-29
2023/04/30 09:42:21;;;;;;;13.83;10.23;;;15.50;99.90;;;;;;5042071;28;20575;-29
2023/04/30 09:44:52;;;;;;;11.47;9.73;;;15.50;99.90;;;;;;5023040;28;20213;-29
2023/04/30 09:47:19;;;;;;;11.50;9.70;;;15.50;99.90;;;;;;5024106;28;20224;-29
2023/04/30 09:49:50;;;;;;;10.68;9.55;;;15.60;99.90;;;;;;5027629;28;20219;-29
2023/04/30 09:52:20;;;;;;;10.60;8.98;;;15.70;99.90;;;;;;5036673;28;20295;-29
2023/04/30 09:54:48;;;;;;;9.60;7.30;;;15.70;99.90;;;;;;5037083;28;20753;-28
2023/04/30 09:57:21;;;;;;;11.93;8.93;;;15.70;99.90;;;;;;5042497;28;20240;-29
2023/04/30 09:59:54;;;;;;;10.40;8.13;;;15.80;99.90;;;;;;5038072;28;20204;-29
2023/04/30 10:02:25;;;;;;;13.27;9.85;;;15.80;99.90;;;;;;5023174;28;20212;-29
2023/04/30 10:04:57;;;;;;;11.02;9.20;;;15.80;99.90;;;;;;5043059;28;20205;-29
2023/04/30 10:07:35;;;;;;;11.20;9.85;;;15.90;99.90;;;;;;5041545;28;20239;-29
2023/04/30 10:10:09;;;;;;;11.70;8.18;;;15.90;99.90;;;;;;5040189;28;20234;-29
2023/04/30 10:12:49;;;;;;;8.40;7.57;;;15.90;99.90;;;;;;5037351;28;20621;-29
2023/04/30 10:15:38;;;;;;;7.00;6.30;;;16.00;99.90;;;;;;5033370;28;20202;-29
2023/04/30 10:18:13;;;;;;;7.50;6.57;;;16.10;99.90;;;;;;5027843;28;20231;-29
2023/04/30 10:20:47;;;;;;;11.35;8.65;;;16.20;99.90;;;;;;5029591;28;20296;-29
2023/04/30 10:23:15;;;;;;;11.95;8.48;;;16.20;99.90;;;;;;5048224;28;21178;-29
2023/04/30 10:25:44;;;;;;;10.88;7.95;;;16.30;99.90;;;;;;5032369;28;20647;-29
2023/04/30 10:28:14;;;;;;;10.40;7.53;;;16.40;99.90;;;;;;5032624;28;20355;-29
2023/04/30 10:30:46;;;;;;;8.95;7.57;;;16.40;99.90;;;;;;5035656;28;20197;-29
2023/04/30 10:33:38;;;;;;;8.43;6.95;;;16.50;99.90;;;;;;5027801;28;20212;-29
2023/04/30 10:36:10;;;;;;;8.90;7.63;;;16.50;99.90;;;;;;5023951;28;20205;-29
2023/04/30 10:38:38;;;;;;;9.18;7.43;;;16.60;99.90;;;;;;5025865;28;20240;-29
2023/04/30 10:41:08;;;;;;;9.65;7.97;;;16.60;99.90;;;;;;5039450;28;20216;-29
2023/04/30 10:43:38;;;;;;;9.55;7.28;;;16.60;99.90;;;;;;5032974;28;20233;-29
2023/04/30 10:46:09;;;;;;;7.28;6.43;;;16.70;99.90;;;;;;5036182;28;20227;-29
2023/04/30 10:48:39;;;;;;;8.02;5.88;;;16.70;99.90;;;;;;5023809;28;20314;-29
2023/04/30 10:51:07;;;;;;;8.60;7.38;;;16.80;99.90;;;;;;5029027;28;20250;-29
2023/04/30 10:53:39;;;;;;;9.60;7.18;;;16.80;99.90;;;;;;5021287;28;20243;-29
2023/04/30 10:56:07;;;;;;;10.82;8.13;;;16.90;99.90;;;;;;5036695;28;20240;-29
2023/04/30 10:58:37;;;;;;;9.23;6.90;;;16.90;99.90;;;;;;5028056;28;20231;-29
2023/04/30 11:01:10;;;;;;;8.10;6.20;;;16.90;99.90;;;;;;5039596;28;20204;-29
2023/04/30 11:04:00;;;;;;;8.55;6.70;;;17.00;99.90;;;;;;5021981;28;20270;-29
2023/04/30 11:07:08;;;;;;;9.23;7.13;;;17.00;99.90;;;;;;5039274;28;20287;-30
2023/04/30 11:09:42;;;;;;;6.40;5.78;;;17.00;99.90;;;;;;5026223;28;20209;-29
2023/04/30 11:12:14;;;;;;;6.40;5.25;;;17.10;99.90;;;;;;5020765;28;20208;-29
2023/04/30 11:14:48;;;;;;;6.45;5.72;;;17.20;99.90;;;;;;5023358;28;20215;-29
2023/04/30 11:17:26;;;;;;;5.50;4.97;;;17.20;99.90;;;;;;5024635;28;20236;-29
2023/04/30 11:19:59;;;;;;;7.65;5.70;;;17.30;99.90;;;;;;5039102;28;20624;-29
2023/04/30 11:22:29;;;;;;;5.47;4.97;;;17.30;99.90;;;;;;5040165;28;20223;-29
2023/04/30 11:25:01;;;;;;;5.78;5.00;;;17.40;99.90;;;;;;5035007;28;20197;-29
2023/04/30 11:27:32;;;;;;;5.78;4.68;;;17.40;99.90;;;;;;5038098;28;20670;-29
2023/04/30 11:30:01;;;;;;;7.20;5.28;;;17.50;99.90;;;;;;5039964;28;20204;-29
2023/04/30 11:32:36;;;;;;;6.00;5.00;;;17.60;99.90;;;;;;5026165;28;20680;-29
2023/04/30 11:35:05;;;;;;;6.60;5.78;;;17.60;99.90;;;;;;5027137;28;20200;-29
2023/04/30 11:37:37;;;;;;;6.03;5.00;;;17.60;99.90;;;;;;5033833;28;20213;-29
2023/04/30 11:40:07;;;;;;;5.90;5.30;;;17.70;99.90;;;;;;5045704;28;20206;-29
2023/04/30 11:42:39;;;;;;;7.53;5.10;;;17.80;99.90;;;;;;5043991;28;20216;-29
2023/04/30 11:45:12;;;;;;;7.10;4.03;;;17.80;99.90;;;;;;5028862;28;20268;-29
2023/04/30 11:47:42;;;;;;;5.75;4.53;;;17.90;99.90;;;;;;5037979;28;20712;-29
2023/04/30 11:50:18;;;;;;;5.30;4.80;;;17.90;99.90;;;;;;5043603;28;20206;-29
2023/04/30 11:52:50;;;;;;;4.65;4.15;;;18.00;99.90;;;;;;5027527;28;20216;-29
2023/04/30 11:55:20;;;;;;;8.07;4.13;;;18.00;99.90;;;;;;5025724;28;20258;-29
2023/04/30 11:57:58;;;;;;;4.55;3.80;;;18.10;99.90;;;;;;5026383;28;20339;-29
2023/04/30 12:00:30;;;;;;;4.10;3.40;;;18.20;99.90;;;;;;5025496;28;20216;-29
2023/04/30 12:03:00;;;;;;;3.10;2.80;;;18.30;99.90;;;;;;5026671;28;20208;-29
2023/04/30 12:05:30;;;;;;;4.32;2.80;;;18.30;99.90;;;;;;5043259;28;20262;-29
2023/04/30 12:08:03;;;;;;;4.68;3.17;;;18.30;99.90;;;;;;5029071;28;20260;-29
2023/04/30 12:10:31;;;;;;;4.97;3.40;;;18.40;99.90;;;;;;5040634;28;20209;-29
2023/04/30 12:13:06;;;;;;;3.28;2.65;;;18.40;99.90;;;;;;5036194;28;20201;-29
2023/04/30 12:15:38;;;;;;;4.55;3.15;;;18.40;99.90;;;;;;5023815;28;20716;-29
2023/04/30 12:18:16;;;;;;;4.60;3.20;;;18.50;99.90;;;;;;5024395;28;20220;-29
2023/04/30 12:20:46;;;;;;;3.03;2.70;;;18.50;99.90;;;;;;5038159;28;20329;-29
2023/04/30 12:23:16;;;;;;;4.28;3.13;;;18.60;99.90;;;;;;5028336;28;20240;-29
2023/04/30 12:25:48;;;;;;;3.70;3.30;;;18.60;99.90;;;;;;5044132;28;20204;-29
2023/04/30 12:28:15;;;;;;;2.92;2.60;;;18.60;99.90;;;;;;5024957;28;20286;-30
2023/04/30 12:30:45;;;;;;;3.75;2.30;;;18.60;99.90;;;;;;5034922;28;20196;-29
2023/04/30 12:33:16;;;;;;;3.67;2.90;;;18.70;99.90;;;;;;5023428;28;20300;-29
2023/04/30 12:35:43;;;;;;;3.22;2.38;;;18.70;99.90;;;;;;5024044;28;20299;-29
2023/04/30 12:38:19;;;;;;;3.45;2.70;;;18.70;99.90;;;;;;5032814;28;20240;-29
2023/04/30 12:40:49;;;;;;;3.35;2.70;;;18.80;99.90;;;;;;5024173;28;20222;-29
2023/04/30 12:43:19;;;;;;;3.13;2.75;;;18.80;99.90;;;;;;5031047;28;20201;-29
2023/04/30 12:45:56;;;;;;;4.93;2.85;;;18.90;99.90;;;;;;5036054;28;20208;-29
2023/04/30 12:48:24;;;;;;;3.38;3.00;;;19.00;99.90;;;;;;5037651;28;20598;-30
2023/04/30 12:50:57;;;;;;;3.58;2.80;;;19.00;99.90;;;;;;5036986;28;20212;-29
2023/04/30 12:53:25;;;;;;;2.95;2.50;;;19.00;99.90;;;;;;5032622;28;20363;-29